FJI224Y NZWN-NZAA
Flight info
| Callsign | FJI224Y |
|---|---|
| Flight time | 0h 49m |
| Altitude | 35000 |
| Route | RUSIL Y127 OPABI Q277 DAVEE |
| Aircraft | A359/H-SDE2E3GHIJ3J4J5LM1ORWXY/LB1D1 |
Departure
| Time | 2026-05-06 13:19 |
|---|---|
| Airport | Wellington International Airport (NZWN) |
Arrival
| Time | 2026-05-06 14:08 |
|---|---|
| Airport | Auckland International Airport (NZAA) |
| Time | Latitude | Longitude | Altitude | Speed | Heading |
|---|---|---|---|---|---|
| 2026-05-06 12:59 | -41.32759 | 174.80968 | 33 ft | 0 kts | 141° |
| 2026-05-06 13:10 | -41.32749 | 174.80957 | 33 ft | 4 kts | 128° |
| 2026-05-06 13:10 | -41.32735 | 174.80935 | 33 ft | 4 kts | 142° |
| 2026-05-06 13:10 | -41.32714 | 174.80924 | 32 ft | 4 kts | 200° |
| 2026-05-06 13:10 | -41.32701 | 174.80944 | 31 ft | 4 kts | 262° |
| 2026-05-06 13:11 | -41.32700 | 174.80979 | 30 ft | 4 kts | 276° |
| 2026-05-06 13:11 | -41.32701 | 174.80997 | 32 ft | 0 kts | 273° |
| 2026-05-06 13:15 | -41.32701 | 174.80991 | 30 ft | 4 kts | 273° |
| 2026-05-06 13:15 | -41.32710 | 174.80908 | 31 ft | 12 kts | 256° |
| 2026-05-06 13:15 | -41.32740 | 174.80826 | 33 ft | 10 kts | 211° |
| 2026-05-06 13:16 | -41.32837 | 174.80808 | 33 ft | 18 kts | 182° |
| 2026-05-06 13:16 | -41.32976 | 174.80798 | 33 ft | 22 kts | 183° |
| 2026-05-06 13:16 | -41.33147 | 174.80787 | 33 ft | 27 kts | 182° |
| 2026-05-06 13:16 | -41.33341 | 174.80776 | 33 ft | 25 kts | 183° |
| 2026-05-06 13:17 | -41.33473 | 174.80768 | 33 ft | 15 kts | 182° |
| 2026-05-06 13:17 | -41.33562 | 174.80714 | 33 ft | 13 kts | 232° |
| 2026-05-06 13:17 | -41.33575 | 174.80631 | 33 ft | 5 kts | 297° |
| 2026-05-06 13:17 | -41.33565 | 174.80629 | 31 ft | 0 kts | 351° |
| 2026-05-06 13:18 | -41.33563 | 174.80629 | 32 ft | 0 kts | 359° |
| 2026-05-06 13:18 | -41.33562 | 174.80630 | 32 ft | 0 kts | 2° |
| 2026-05-06 13:18 | -41.33515 | 174.80633 | 33 ft | 38 kts | 3° |
| 2026-05-06 13:18 | -41.32903 | 174.80674 | 33 ft | 134 kts | 2° |
| 2026-05-06 13:19 | -41.31862 | 174.80767 | 813 ft | 151 kts | 4° |
| 2026-05-06 13:19 | -41.30799 | 174.80931 | 1814 ft | 163 kts | 2° |
| 2026-05-06 13:19 | -41.29620 | 174.81098 | 2556 ft | 178 kts | 0° |
| 2026-05-06 13:19 | -41.28329 | 174.81241 | 3335 ft | 195 kts | 359° |
| 2026-05-06 13:20 | -41.26919 | 174.81125 | 3986 ft | 214 kts | 343° |
| 2026-05-06 13:20 | -41.25438 | 174.80542 | 4797 ft | 228 kts | 339° |
| 2026-05-06 13:20 | -41.23908 | 174.79909 | 5805 ft | 233 kts | 340° |
| 2026-05-06 13:20 | -41.22325 | 174.79295 | 6770 ft | 243 kts | 342° |
| 2026-05-06 13:21 | -41.20669 | 174.78676 | 7766 ft | 251 kts | 342° |
| 2026-05-06 13:21 | -41.18960 | 174.78067 | 8905 ft | 257 kts | 343° |
| 2026-05-06 13:21 | -41.17229 | 174.77490 | 10056 ft | 264 kts | 346° |
| 2026-05-06 13:21 | -41.15333 | 174.77239 | 10783 ft | 288 kts | 357° |
| 2026-05-06 13:22 | -41.13240 | 174.77357 | 11385 ft | 311 kts | 1° |
| 2026-05-06 13:22 | -41.11047 | 174.77576 | 12333 ft | 320 kts | 2° |
| 2026-05-06 13:22 | -41.08808 | 174.77794 | 13409 ft | 325 kts | 2° |
| 2026-05-06 13:22 | -41.06535 | 174.78008 | 14451 ft | 330 kts | 2° |
| 2026-05-06 13:23 | -41.04223 | 174.78214 | 15366 ft | 337 kts | 2° |
| 2026-05-06 13:23 | -41.01857 | 174.78422 | 16244 ft | 344 kts | 1° |
| 2026-05-06 13:23 | -40.99449 | 174.78631 | 17108 ft | 351 kts | 1° |
| 2026-05-06 13:23 | -40.96985 | 174.78839 | 17995 ft | 358 kts | 1° |
| 2026-05-06 13:24 | -40.94479 | 174.79049 | 18855 ft | 364 kts | 1° |
| 2026-05-06 13:24 | -40.91934 | 174.79264 | 19633 ft | 369 kts | 1° |
| 2026-05-06 13:24 | -40.89349 | 174.79486 | 20455 ft | 375 kts | 1° |
| 2026-05-06 13:24 | -40.86725 | 174.79713 | 21297 ft | 380 kts | 1° |
| 2026-05-06 13:25 | -40.84065 | 174.79939 | 22141 ft | 385 kts | 1° |
| 2026-05-06 13:25 | -40.81404 | 174.80162 | 22966 ft | 391 kts | 1° |
| 2026-05-06 13:25 | -40.78671 | 174.80395 | 23771 ft | 396 kts | 1° |
| 2026-05-06 13:25 | -40.75896 | 174.80629 | 24459 ft | 402 kts | 1° |
| 2026-05-06 13:26 | -40.73086 | 174.80865 | 25124 ft | 407 kts | 1° |
| 2026-05-06 13:26 | -40.70240 | 174.81105 | 25799 ft | 412 kts | 1° |
| 2026-05-06 13:26 | -40.67356 | 174.81349 | 26466 ft | 417 kts | 1° |
| 2026-05-06 13:26 | -40.64444 | 174.81578 | 27134 ft | 422 kts | 360° |
| 2026-05-06 13:27 | -40.61494 | 174.81653 | 27800 ft | 426 kts | 357° |
| 2026-05-06 13:27 | -40.58516 | 174.81618 | 28462 ft | 430 kts | 356° |
| 2026-05-06 13:27 | -40.55504 | 174.81547 | 29106 ft | 435 kts | 356° |
| 2026-05-06 13:27 | -40.52466 | 174.81473 | 29728 ft | 440 kts | 356° |
| 2026-05-06 13:28 | -40.49390 | 174.81414 | 30340 ft | 444 kts | 356° |
| 2026-05-06 13:28 | -40.46277 | 174.81373 | 30847 ft | 449 kts | 356° |
| 2026-05-06 13:28 | -40.43137 | 174.81347 | 31341 ft | 454 kts | 356° |
| 2026-05-06 13:28 | -40.40000 | 174.81330 | 31825 ft | 458 kts | 356° |
| 2026-05-06 13:29 | -40.36800 | 174.81317 | 32299 ft | 462 kts | 356° |
| 2026-05-06 13:29 | -40.33568 | 174.81305 | 32740 ft | 467 kts | 356° |
| 2026-05-06 13:29 | -40.30305 | 174.81294 | 33192 ft | 471 kts | 356° |
| 2026-05-06 13:29 | -40.27015 | 174.81281 | 33656 ft | 475 kts | 356° |
| 2026-05-06 13:30 | -40.23692 | 174.81272 | 34104 ft | 478 kts | 356° |
| 2026-05-06 13:30 | -40.21481 | 174.81266 | 34376 ft | 481 kts | 356° |
| 2026-05-06 13:30 | -40.16984 | 174.81254 | 34881 ft | 485 kts | 356° |
| 2026-05-06 13:30 | -40.14745 | 174.81246 | 35128 ft | 486 kts | 356° |
| 2026-05-06 13:31 | -40.11363 | 174.81228 | 35289 ft | 483 kts | 356° |
| 2026-05-06 13:31 | -40.07025 | 174.81214 | 35312 ft | 459 kts | 356° |
| 2026-05-06 13:31 | -40.04886 | 174.81208 | 35313 ft | 450 kts | 356° |
| 2026-05-06 13:32 | -39.98718 | 174.81179 | 35317 ft | 445 kts | 356° |
| 2026-05-06 13:32 | -39.92530 | 174.81142 | 35319 ft | 444 kts | 356° |
| 2026-05-06 13:33 | -39.86336 | 174.81111 | 35327 ft | 445 kts | 356° |
| 2026-05-06 13:33 | -39.80136 | 174.81085 | 35324 ft | 445 kts | 356° |
| 2026-05-06 13:34 | -39.73939 | 174.81059 | 35323 ft | 445 kts | 356° |
| 2026-05-06 13:34 | -39.67774 | 174.81034 | 35322 ft | 445 kts | 356° |
| 2026-05-06 13:35 | -39.61567 | 174.81008 | 35331 ft | 446 kts | 356° |
| 2026-05-06 13:35 | -39.55359 | 174.80976 | 35334 ft | 446 kts | 356° |
| 2026-05-06 13:36 | -39.49146 | 174.80953 | 35333 ft | 446 kts | 356° |
| 2026-05-06 13:36 | -39.42939 | 174.80921 | 35352 ft | 446 kts | 356° |
| 2026-05-06 13:37 | -39.36725 | 174.80899 | 35341 ft | 446 kts | 356° |
| 2026-05-06 13:37 | -39.30554 | 174.80875 | 35341 ft | 446 kts | 356° |
| 2026-05-06 13:38 | -39.24335 | 174.80853 | 35347 ft | 446 kts | 356° |
| 2026-05-06 13:38 | -39.18128 | 174.80839 | 35349 ft | 445 kts | 356° |
| 2026-05-06 13:39 | -39.11934 | 174.80818 | 35350 ft | 445 kts | 356° |
| 2026-05-06 13:39 | -39.05735 | 174.80787 | 35350 ft | 445 kts | 356° |
| 2026-05-06 13:40 | -38.99541 | 174.80762 | 35352 ft | 445 kts | 356° |
| 2026-05-06 13:40 | -38.93393 | 174.80742 | 35357 ft | 444 kts | 356° |
| 2026-05-06 13:41 | -38.87203 | 174.80721 | 35355 ft | 444 kts | 356° |
| 2026-05-06 13:41 | -38.81019 | 174.80708 | 35357 ft | 444 kts | 356° |
| 2026-05-06 13:42 | -38.74838 | 174.80701 | 35358 ft | 444 kts | 356° |
| 2026-05-06 13:42 | -38.68650 | 174.80701 | 35319 ft | 444 kts | 356° |
| 2026-05-06 13:42 | -38.65511 | 174.80698 | 35194 ft | 457 kts | 356° |
| 2026-05-06 13:43 | -38.62309 | 174.80694 | 34785 ft | 461 kts | 356° |
| 2026-05-06 13:43 | -38.59085 | 174.80693 | 33814 ft | 466 kts | 356° |
| 2026-05-06 13:43 | -38.55813 | 174.80688 | 32796 ft | 472 kts | 357° |
| 2026-05-06 13:43 | -38.52520 | 174.80683 | 31892 ft | 475 kts | 358° |
| 2026-05-06 13:44 | -38.49271 | 174.80683 | 31302 ft | 471 kts | 358° |
| 2026-05-06 13:44 | -38.46009 | 174.80685 | 30694 ft | 467 kts | 359° |
| 2026-05-06 13:44 | -38.42757 | 174.80688 | 30005 ft | 464 kts | 359° |
| 2026-05-06 13:44 | -38.39542 | 174.80692 | 29363 ft | 460 kts | 359° |
| 2026-05-06 13:45 | -38.36359 | 174.80695 | 28749 ft | 455 kts | 359° |
| 2026-05-06 13:45 | -38.30097 | 174.80703 | 27533 ft | 445 kts | 358° |
| 2026-05-06 13:45 | -38.27014 | 174.80702 | 26927 ft | 441 kts | 358° |
| 2026-05-06 13:46 | -38.23956 | 174.80701 | 26324 ft | 437 kts | 358° |
| 2026-05-06 13:46 | -38.20921 | 174.80695 | 25718 ft | 433 kts | 358° |
| 2026-05-06 13:46 | -38.17914 | 174.80688 | 25112 ft | 430 kts | 358° |
| 2026-05-06 13:46 | -38.14939 | 174.80684 | 24507 ft | 426 kts | 358° |
| 2026-05-06 13:47 | -38.12016 | 174.80681 | 23896 ft | 423 kts | 358° |
| 2026-05-06 13:47 | -38.09082 | 174.80683 | 23212 ft | 419 kts | 358° |
| 2026-05-06 13:47 | -38.06188 | 174.80684 | 22586 ft | 413 kts | 358° |
| 2026-05-06 13:47 | -38.03328 | 174.80684 | 21971 ft | 408 kts | 358° |
| 2026-05-06 13:48 | -38.00506 | 174.80685 | 21361 ft | 403 kts | 358° |
| 2026-05-06 13:48 | -37.97713 | 174.80684 | 20744 ft | 399 kts | 358° |
| 2026-05-06 13:48 | -37.94949 | 174.80683 | 20136 ft | 395 kts | 358° |
| 2026-05-06 13:48 | -37.92213 | 174.80683 | 19517 ft | 392 kts | 359° |
| 2026-05-06 13:49 | -37.89500 | 174.80680 | 18910 ft | 388 kts | 359° |
| 2026-05-06 13:49 | -37.86806 | 174.80678 | 18238 ft | 385 kts | 359° |
| 2026-05-06 13:49 | -37.84138 | 174.80698 | 17582 ft | 381 kts | 359° |
| 2026-05-06 13:49 | -37.81498 | 174.80730 | 16972 ft | 376 kts | 359° |
| 2026-05-06 13:50 | -37.78890 | 174.80763 | 16364 ft | 371 kts | 360° |
| 2026-05-06 13:50 | -37.76353 | 174.80796 | 15784 ft | 366 kts | 360° |
| 2026-05-06 13:50 | -37.73821 | 174.80828 | 15193 ft | 362 kts | 360° |
| 2026-05-06 13:50 | -37.71319 | 174.80860 | 14607 ft | 357 kts | 360° |
| 2026-05-06 13:51 | -37.68842 | 174.80893 | 14007 ft | 353 kts | 0° |
| 2026-05-06 13:51 | -37.66405 | 174.80924 | 13390 ft | 348 kts | 0° |
| 2026-05-06 13:51 | -37.64008 | 174.80955 | 12883 ft | 340 kts | 0° |
| 2026-05-06 13:51 | -37.61701 | 174.80985 | 12727 ft | 322 kts | 0° |
| 2026-05-06 13:52 | -37.59518 | 174.80991 | 12579 ft | 306 kts | 358° |
| 2026-05-06 13:52 | -37.57420 | 174.80696 | 12170 ft | 300 kts | 350° |
| 2026-05-06 13:52 | -37.55378 | 174.80223 | 11706 ft | 297 kts | 349° |
| 2026-05-06 13:52 | -37.53353 | 174.79732 | 11264 ft | 295 kts | 349° |
| 2026-05-06 13:53 | -37.51330 | 174.79243 | 10592 ft | 299 kts | 349° |
| 2026-05-06 13:53 | -37.49322 | 174.78762 | 10241 ft | 292 kts | 350° |
| 2026-05-06 13:53 | -37.47377 | 174.78299 | 10107 ft | 277 kts | 349° |
| 2026-05-06 13:53 | -37.45535 | 174.77861 | 9959 ft | 263 kts | 349° |
| 2026-05-06 13:54 | -37.43734 | 174.77433 | 9859 ft | 263 kts | 349° |
| 2026-05-06 13:54 | -37.41944 | 174.77009 | 9616 ft | 261 kts | 349° |
| 2026-05-06 13:54 | -37.40164 | 174.76597 | 9297 ft | 259 kts | 349° |
| 2026-05-06 13:54 | -37.38397 | 174.76179 | 8985 ft | 258 kts | 349° |
| 2026-05-06 13:55 | -37.36639 | 174.75762 | 8667 ft | 256 kts | 349° |
| 2026-05-06 13:55 | -37.34889 | 174.75350 | 8358 ft | 255 kts | 349° |
| 2026-05-06 13:55 | -37.33150 | 174.74939 | 8046 ft | 254 kts | 349° |
| 2026-05-06 13:55 | -37.31594 | 174.74572 | 7770 ft | 253 kts | 349° |
| 2026-05-06 13:56 | -37.29866 | 174.74166 | 7475 ft | 252 kts | 349° |
| 2026-05-06 13:56 | -37.28169 | 174.73767 | 7174 ft | 251 kts | 349° |
| 2026-05-06 13:56 | -37.26461 | 174.73366 | 6885 ft | 250 kts | 349° |
| 2026-05-06 13:56 | -37.24788 | 174.72975 | 6723 ft | 238 kts | 349° |
| 2026-05-06 13:57 | -37.23200 | 174.72599 | 6604 ft | 227 kts | 348° |
| 2026-05-06 13:57 | -37.21651 | 174.71960 | 6613 ft | 247 kts | 334° |
| 2026-05-06 13:57 | -37.20230 | 174.70660 | 6537 ft | 254 kts | 318° |
| 2026-05-06 13:57 | -37.19001 | 174.69080 | 6014 ft | 255 kts | 315° |
| 2026-05-06 13:58 | -37.17807 | 174.67424 | 5561 ft | 255 kts | 314° |
| 2026-05-06 13:58 | -37.16654 | 174.65806 | 5393 ft | 241 kts | 314° |
| 2026-05-06 13:58 | -37.15581 | 174.64295 | 5155 ft | 223 kts | 315° |
| 2026-05-06 13:58 | -37.14580 | 174.62889 | 4904 ft | 210 kts | 315° |
| 2026-05-06 13:59 | -37.13602 | 174.61517 | 4745 ft | 212 kts | 315° |
| 2026-05-06 13:59 | -37.12624 | 174.60149 | 4615 ft | 210 kts | 316° |
| 2026-05-06 13:59 | -37.11735 | 174.58697 | 4488 ft | 214 kts | 301° |
| 2026-05-06 13:59 | -37.11392 | 174.56852 | 4390 ft | 222 kts | 281° |
| 2026-05-06 14:00 | -37.11306 | 174.54923 | 4295 ft | 221 kts | 278° |
| 2026-05-06 14:00 | -37.10947 | 174.53099 | 4163 ft | 213 kts | 305° |
| 2026-05-06 14:00 | -37.09976 | 174.51820 | 3982 ft | 198 kts | 325° |
| 2026-05-06 14:00 | -37.09153 | 174.50466 | 3834 ft | 193 kts | 306° |
| 2026-05-06 14:01 | -37.08470 | 174.49074 | 3724 ft | 183 kts | 311° |
| 2026-05-06 14:01 | -37.07558 | 174.48079 | 3615 ft | 175 kts | 342° |
| 2026-05-06 14:01 | -37.06396 | 174.48064 | 3513 ft | 169 kts | 21° |
| 2026-05-06 14:01 | -37.05539 | 174.49061 | 3423 ft | 176 kts | 58° |
| 2026-05-06 14:02 | -37.05323 | 174.50587 | 3313 ft | 187 kts | 92° |
| 2026-05-06 14:02 | -37.05890 | 174.52042 | 3221 ft | 189 kts | 121° |
| 2026-05-06 14:02 | -37.06752 | 174.53292 | 3127 ft | 189 kts | 127° |
| 2026-05-06 14:02 | -37.07530 | 174.54576 | 3014 ft | 181 kts | 104° |
| 2026-05-06 14:03 | -37.07502 | 174.56046 | 2982 ft | 165 kts | 64° |
| 2026-05-06 14:03 | -37.07054 | 174.57356 | 2985 ft | 163 kts | 60° |
| 2026-05-06 14:03 | -37.06670 | 174.58699 | 3026 ft | 165 kts | 66° |
| 2026-05-06 14:03 | -37.06321 | 174.60047 | 2888 ft | 161 kts | 65° |
| 2026-05-06 14:04 | -37.05962 | 174.61349 | 2671 ft | 160 kts | 64° |
| 2026-05-06 14:04 | -37.05597 | 174.62665 | 2436 ft | 160 kts | 64° |
| 2026-05-06 14:04 | -37.05233 | 174.63980 | 2225 ft | 159 kts | 65° |
| 2026-05-06 14:04 | -37.04878 | 174.65284 | 2009 ft | 157 kts | 64° |
| 2026-05-06 14:05 | -37.04523 | 174.66574 | 1792 ft | 157 kts | 64° |
| 2026-05-06 14:05 | -37.04166 | 174.67860 | 1562 ft | 152 kts | 66° |
| 2026-05-06 14:05 | -37.03837 | 174.69064 | 1363 ft | 141 kts | 66° |
| 2026-05-06 14:05 | -37.03529 | 174.70184 | 1177 ft | 131 kts | 66° |
| 2026-05-06 14:06 | -37.03242 | 174.71223 | 1011 ft | 122 kts | 66° |
| 2026-05-06 14:06 | -37.02970 | 174.72205 | 847 ft | 119 kts | 68° |
| 2026-05-06 14:06 | -37.02700 | 174.73185 | 693 ft | 119 kts | 68° |
| 2026-05-06 14:06 | -37.02435 | 174.74169 | 566 ft | 121 kts | 70° |
| 2026-05-06 14:07 | -37.02161 | 174.75167 | 383 ft | 120 kts | 69° |
| 2026-05-06 14:07 | -37.01890 | 174.76155 | 221 ft | 120 kts | 67° |
| 2026-05-06 14:07 | -37.01617 | 174.77150 | 68 ft | 122 kts | 69° |
| 2026-05-06 14:07 | -37.01359 | 174.78070 | 32 ft | 89 kts | 70° |
| 2026-05-06 14:08 | -37.01209 | 174.78604 | 32 ft | 47 kts | 71° |
| 2026-05-06 14:08 | -37.01131 | 174.78842 | 32 ft | 24 kts | 62° |
| 2026-05-06 14:08 | -37.01032 | 174.78997 | 32 ft | 21 kts | 43° |
| 2026-05-06 14:08 | -37.00960 | 174.79076 | 32 ft | 4 kts | 40° |
| 2026-05-06 14:09 | -37.00956 | 174.79080 | 32 ft | 0 kts | 40° |
| 2026-05-06 14:09 | -37.00955 | 174.79081 | 32 ft | 1 kts | 40° |
| 2026-05-06 14:09 | -37.00941 | 174.79096 | 32 ft | 5 kts | 40° |
| 2026-05-06 14:09 | -37.00904 | 174.79120 | 32 ft | 7 kts | 13° |
| 2026-05-06 14:10 | -37.00852 | 174.79114 | 32 ft | 9 kts | 343° |
| 2026-05-06 14:10 | -37.00809 | 174.79065 | 32 ft | 8 kts | 288° |
| 2026-05-06 14:10 | -37.00823 | 174.78989 | 32 ft | 10 kts | 250° |
| 2026-05-06 14:10 | -37.00848 | 174.78894 | 32 ft | 13 kts | 251° |
| 2026-05-06 14:11 | -37.00884 | 174.78766 | 32 ft | 17 kts | 251° |
| 2026-05-06 14:11 | -37.00926 | 174.78616 | 32 ft | 19 kts | 251° |
| 2026-05-06 14:11 | -37.00972 | 174.78448 | 32 ft | 21 kts | 251° |
| 2026-05-06 14:11 | -37.00998 | 174.78309 | 32 ft | 15 kts | 271° |
| 2026-05-06 14:12 | -37.00948 | 174.78188 | 31 ft | 18 kts | 301° |
| 2026-05-06 14:12 | -37.00872 | 174.78051 | 31 ft | 18 kts | 323° |
| 2026-05-06 14:12 | -37.00749 | 174.78013 | 32 ft | 19 kts | 9° |
| 2026-05-06 14:12 | -37.00636 | 174.78028 | 32 ft | 16 kts | 335° |
| 2026-05-06 14:13 | -37.00586 | 174.77948 | 32 ft | 8 kts | 306° |
| 2026-05-06 14:13 | -37.00539 | 174.77910 | 32 ft | 7 kts | 341° |
| 2026-05-06 14:13 | -37.00512 | 174.77898 | 32 ft | 2 kts | 341° |
| 2026-05-06 14:13 | -37.00505 | 174.77896 | 31 ft | 0 kts | 341° |